sensor_id;sensor_type;location;lat;lon;timestamp;temperature;humidity
20568;DHT22;10442;49.932;11.592;2024-01-30T00:00:10;4.70;62.10
20568;DHT22;10442;49.932;11.592;2024-01-30T00:02:39;4.70;62.20
20568;DHT22;10442;49.932;11.592;2024-01-30T00:05:06;4.70;62.30
20568;DHT22;10442;49.932;11.592;2024-01-30T00:07:34;4.60;62.30
20568;DHT22;10442;49.932;11.592;2024-01-30T00:10:03;4.60;62.30
20568;DHT22;10442;49.932;11.592;2024-01-30T00:12:30;4.50;62.40
20568;DHT22;10442;49.932;11.592;2024-01-30T00:15:01;4.50;62.40
20568;DHT22;10442;49.932;11.592;2024-01-30T00:17:29;4.50;62.50
20568;DHT22;10442;49.932;11.592;2024-01-30T00:19:58;4.50;62.60
20568;DHT22;10442;49.932;11.592;2024-01-30T00:22:25;4.50;62.70
20568;DHT22;10442;49.932;11.592;2024-01-30T00:24:53;4.40;62.80
20568;DHT22;10442;49.932;11.592;2024-01-30T00:27:21;4.40;62.80
20568;DHT22;10442;49.932;11.592;2024-01-30T00:29:48;4.40;62.90
20568;DHT22;10442;49.932;11.592;2024-01-30T00:32:17;4.30;63.00
20568;DHT22;10442;49.932;11.592;2024-01-30T00:34:46;4.30;63.10
20568;DHT22;10442;49.932;11.592;2024-01-30T00:37:15;4.30;63.00
20568;DHT22;10442;49.932;11.592;2024-01-30T00:39:43;4.30;63.10
20568;DHT22;10442;49.932;11.592;2024-01-30T00:42:11;4.20;63.10
20568;DHT22;10442;49.932;11.592;2024-01-30T00:44:39;4.30;63.10
20568;DHT22;10442;49.932;11.592;2024-01-30T00:47:07;4.30;63.30
20568;DHT22;10442;49.932;11.592;2024-01-30T00:49:35;4.20;63.10
20568;DHT22;10442;49.932;11.592;2024-01-30T00:52:04;4.20;63.20
20568;DHT22;10442;49.932;11.592;2024-01-30T00:54:32;4.20;63.10
20568;DHT22;10442;49.932;11.592;2024-01-30T00:56:59;4.20;63.30
20568;DHT22;10442;49.932;11.592;2024-01-30T00:59:27;4.20;63.40
20568;DHT22;10442;49.932;11.592;2024-01-30T01:01:55;4.20;63.40
20568;DHT22;10442;49.932;11.592;2024-01-30T01:04:24;4.20;63.20
20568;DHT22;10442;49.932;11.592;2024-01-30T01:06:52;4.20;63.30
20568;DHT22;10442;49.932;11.592;2024-01-30T01:09:20;4.20;63.20
20568;DHT22;10442;49.932;11.592;2024-01-30T01:11:47;4.10;63.20
20568;DHT22;10442;49.932;11.592;2024-01-30T01:14:15;4.20;63.40
20568;DHT22;10442;49.932;11.592;2024-01-30T01:16:42;4.10;63.30
20568;DHT22;10442;49.932;11.592;2024-01-30T01:19:10;4.10;63.30
20568;DHT22;10442;49.932;11.592;2024-01-30T01:21:37;4.10;63.40
20568;DHT22;10442;49.932;11.592;2024-01-30T01:24:04;4.10;63.30
20568;DHT22;10442;49.932;11.592;2024-01-30T01:26:32;4.10;63.50
20568;DHT22;10442;49.932;11.592;2024-01-30T01:29:00;4.10;63.60
20568;DHT22;10442;49.932;11.592;2024-01-30T01:31:28;4.00;63.60
20568;DHT22;10442;49.932;11.592;2024-01-30T01:33:57;4.00;63.60
20568;DHT22;10442;49.932;11.592;2024-01-30T01:36:24;4.00;63.60
20568;DHT22;10442;49.932;11.592;2024-01-30T01:38:51;4.00;63.70
20568;DHT22;10442;49.932;11.592;2024-01-30T01:41:19;3.90;63.80
20568;DHT22;10442;49.932;11.592;2024-01-30T01:43:46;3.90;64.00
20568;DHT22;10442;49.932;11.592;2024-01-30T01:46:14;3.90;64.20
20568;DHT22;10442;49.932;11.592;2024-01-30T01:48:42;3.90;64.60
20568;DHT22;10442;49.932;11.592;2024-01-30T01:51:10;3.80;64.80
20568;DHT22;10442;49.932;11.592;2024-01-30T01:53:38;3.80;65.00
20568;DHT22;10442;49.932;11.592;2024-01-30T01:56:06;3.90;65.20
20568;DHT22;10442;49.932;11.592;2024-01-30T01:58:33;3.80;65.20
20568;DHT22;10442;49.932;11.592;2024-01-30T02:01:02;3.80;65.30
20568;DHT22;10442;49.932;11.592;2024-01-30T02:03:30;3.80;65.40
20568;DHT22;10442;49.932;11.592;2024-01-30T02:05:58;3.80;65.30
20568;DHT22;10442;49.932;11.592;2024-01-30T02:08:27;3.90;65.30
20568;DHT22;10442;49.932;11.592;2024-01-30T02:10:56;3.90;65.40
20568;DHT22;10442;49.932;11.592;2024-01-30T02:13:24;3.90;65.40
20568;DHT22;10442;49.932;11.592;2024-01-30T02:15:53;3.90;65.40
20568;DHT22;10442;49.932;11.592;2024-01-30T02:18:21;3.90;65.40
20568;DHT22;10442;49.932;11.592;2024-01-30T02:20:54;4.00;65.20
20568;DHT22;10442;49.932;11.592;2024-01-30T02:23:24;4.00;65.30
20568;DHT22;10442;49.932;11.592;2024-01-30T02:25:54;4.00;65.30
20568;DHT22;10442;49.932;11.592;2024-01-30T02:28:22;4.00;65.20
20568;DHT22;10442;49.932;11.592;2024-01-30T02:30:50;4.00;65.10
20568;DHT22;10442;49.932;11.592;2024-01-30T02:33:18;4.00;65.00
20568;DHT22;10442;49.932;11.592;2024-01-30T02:35:46;4.00;65.00
20568;DHT22;10442;49.932;11.592;2024-01-30T02:38:15;4.00;65.00
20568;DHT22;10442;49.932;11.592;2024-01-30T02:40:44;4.00;65.10
20568;DHT22;10442;49.932;11.592;2024-01-30T02:43:11;4.00;65.10
20568;DHT22;10442;49.932;11.592;2024-01-30T02:45:39;4.00;65.10
20568;DHT22;10442;49.932;11.592;2024-01-30T02:48:07;4.00;65.30
20568;DHT22;10442;49.932;11.592;2024-01-30T02:50:34;4.00;65.40
20568;DHT22;10442;49.932;11.592;2024-01-30T02:53:02;4.00;65.30
20568;DHT22;10442;49.932;11.592;2024-01-30T02:55:30;4.00;65.40
20568;DHT22;10442;49.932;11.592;2024-01-30T02:57:58;4.00;65.40
20568;DHT22;10442;49.932;11.592;2024-01-30T03:00:25;4.00;65.40
20568;DHT22;10442;49.932;11.592;2024-01-30T03:02:53;4.10;65.60
20568;DHT22;10442;49.932;11.592;2024-01-30T03:05:21;4.00;65.50
20568;DHT22;10442;49.932;11.592;2024-01-30T03:07:49;4.00;65.70
20568;DHT22;10442;49.932;11.592;2024-01-30T03:10:17;3.90;65.80
20568;DHT22;10442;49.932;11.592;2024-01-30T03:12:44;4.00;65.80
20568;DHT22;10442;49.932;11.592;2024-01-30T03:15:12;4.00;65.80
20568;DHT22;10442;49.932;11.592;2024-01-30T03:17:39;4.00;65.80
20568;DHT22;10442;49.932;11.592;2024-01-30T03:20:07;4.00;65.90
20568;DHT22;10442;49.932;11.592;2024-01-30T03:22:35;4.00;65.80
20568;DHT22;10442;49.932;11.592;2024-01-30T03:25:05;4.00;65.80
20568;DHT22;10442;49.932;11.592;2024-01-30T03:27:33;4.00;65.90
20568;DHT22;10442;49.932;11.592;2024-01-30T03:30:00;4.00;65.80
20568;DHT22;10442;49.932;11.592;2024-01-30T03:32:28;4.00;65.90
20568;DHT22;10442;49.932;11.592;2024-01-30T03:34:55;4.00;66.00
20568;DHT22;10442;49.932;11.592;2024-01-30T03:37:23;4.00;66.40
20568;DHT22;10442;49.932;11.592;2024-01-30T03:39:51;4.00;65.90
20568;DHT22;10442;49.932;11.592;2024-01-30T03:42:19;3.90;65.90
20568;DHT22;10442;49.932;11.592;2024-01-30T03:44:47;3.90;66.00
20568;DHT22;10442;49.932;11.592;2024-01-30T03:47:16;3.90;66.00
20568;DHT22;10442;49.932;11.592;2024-01-30T03:49:44;4.00;66.10
20568;DHT22;10442;49.932;11.592;2024-01-30T03:52:12;4.00;66.20
20568;DHT22;10442;49.932;11.592;2024-01-30T03:54:40;4.00;66.00
20568;DHT22;10442;49.932;11.592;2024-01-30T03:57:08;4.00;66.00
20568;DHT22;10442;49.932;11.592;2024-01-30T03:59:35;4.00;66.10
20568;DHT22;10442;49.932;11.592;2024-01-30T04:02:03;4.00;66.10
20568;DHT22;10442;49.932;11.592;2024-01-30T04:04:30;4.00;66.00
20568;DHT22;10442;49.932;11.592;2024-01-30T04:06:58;4.00;66.00
20568;DHT22;10442;49.932;11.592;2024-01-30T04:09:26;4.00;66.20
20568;DHT22;10442;49.932;11.592;2024-01-30T04:11:55;4.00;66.20
20568;DHT22;10442;49.932;11.592;2024-01-30T04:14:23;4.00;66.20
20568;DHT22;10442;49.932;11.592;2024-01-30T04:16:51;4.00;66.20
20568;DHT22;10442;49.932;11.592;2024-01-30T04:19:19;4.00;66.10
20568;DHT22;10442;49.932;11.592;2024-01-30T04:21:46;4.00;66.20
20568;DHT22;10442;49.932;11.592;2024-01-30T04:24:14;4.00;66.20
20568;DHT22;10442;49.932;11.592;2024-01-30T04:26:44;4.00;66.20
20568;DHT22;10442;49.932;11.592;2024-01-30T04:29:11;4.00;66.20
20568;DHT22;10442;49.932;11.592;2024-01-30T04:31:39;4.00;66.20
20568;DHT22;10442;49.932;11.592;2024-01-30T04:34:07;4.00;66.20
20568;DHT22;10442;49.932;11.592;2024-01-30T04:36:35;4.00;66.20
20568;DHT22;10442;49.932;11.592;2024-01-30T04:39:03;4.00;66.20
20568;DHT22;10442;49.932;11.592;2024-01-30T04:41:31;3.90;66.10
20568;DHT22;10442;49.932;11.592;2024-01-30T04:43:59;3.90;66.20
20568;DHT22;10442;49.932;11.592;2024-01-30T04:46:27;3.90;66.20
20568;DHT22;10442;49.932;11.592;2024-01-30T04:48:55;3.90;66.20
20568;DHT22;10442;49.932;11.592;2024-01-30T04:51:23;3.90;66.20
20568;DHT22;10442;49.932;11.592;2024-01-30T04:53:52;3.90;66.30
20568;DHT22;10442;49.932;11.592;2024-01-30T04:56:19;3.90;66.30
20568;DHT22;10442;49.932;11.592;2024-01-30T04:58:47;3.90;66.50
20568;DHT22;10442;49.932;11.592;2024-01-30T05:01:16;3.80;66.50
20568;DHT22;10442;49.932;11.592;2024-01-30T05:03:44;3.80;66.70
20568;DHT22;10442;49.932;11.592;2024-01-30T05:06:12;3.80;66.70
20568;DHT22;10442;49.932;11.592;2024-01-30T05:08:40;3.80;66.80
20568;DHT22;10442;49.932;11.592;2024-01-30T05:11:07;3.80;66.90
20568;DHT22;10442;49.932;11.592;2024-01-30T05:13:38;3.70;66.90
20568;DHT22;10442;49.932;11.592;2024-01-30T05:16:05;3.80;67.10
20568;DHT22;10442;49.932;11.592;2024-01-30T05:18:33;3.70;67.10
20568;DHT22;10442;49.932;11.592;2024-01-30T05:21:02;3.70;67.20
20568;DHT22;10442;49.932;11.592;2024-01-30T05:23:29;3.70;68.00
20568;DHT22;10442;49.932;11.592;2024-01-30T05:25:57;3.70;67.20
20568;DHT22;10442;49.932;11.592;2024-01-30T05:28:31;3.70;67.30
20568;DHT22;10442;49.932;11.592;2024-01-30T05:30:59;3.70;67.40
20568;DHT22;10442;49.932;11.592;2024-01-30T05:33:27;3.60;67.40
20568;DHT22;10442;49.932;11.592;2024-01-30T05:35:54;3.60;67.50
20568;DHT22;10442;49.932;11.592;2024-01-30T05:38:22;3.60;67.50
20568;DHT22;10442;49.932;11.592;2024-01-30T05:40:49;3.60;67.60
20568;DHT22;10442;49.932;11.592;2024-01-30T05:43:17;3.50;67.60
20568;DHT22;10442;49.932;11.592;2024-01-30T05:45:45;3.50;67.80
20568;DHT22;10442;49.932;11.592;2024-01-30T05:48:13;3.50;67.80
20568;DHT22;10442;49.932;11.592;2024-01-30T05:50:40;3.50;67.70
20568;DHT22;10442;49.932;11.592;2024-01-30T05:53:09;3.50;67.80
20568;DHT22;10442;49.932;11.592;2024-01-30T05:55:37;3.50;67.80
20568;DHT22;10442;49.932;11.592;2024-01-30T05:58:05;3.50;67.90
20568;DHT22;10442;49.932;11.592;2024-01-30T06:00:32;3.50;67.80
20568;DHT22;10442;49.932;11.592;2024-01-30T06:03:01;3.50;67.90
20568;DHT22;10442;49.932;11.592;2024-01-30T06:05:29;3.50;67.90
20568;DHT22;10442;49.932;11.592;2024-01-30T06:07:57;3.50;67.90
20568;DHT22;10442;49.932;11.592;2024-01-30T06:10:25;3.50;68.00
20568;DHT22;10442;49.932;11.592;2024-01-30T06:12:54;3.50;68.10
20568;DHT22;10442;49.932;11.592;2024-01-30T06:15:22;3.60;68.20
20568;DHT22;10442;49.932;11.592;2024-01-30T06:17:50;3.60;68.30
20568;DHT22;10442;49.932;11.592;2024-01-30T06:20:17;3.60;68.20
20568;DHT22;10442;49.932;11.592;2024-01-30T06:22:46;3.60;68.10
20568;DHT22;10442;49.932;11.592;2024-01-30T06:25:15;3.60;68.00
20568;DHT22;10442;49.932;11.592;2024-01-30T06:27:44;3.60;68.00
20568;DHT22;10442;49.932;11.592;2024-01-30T06:30:12;3.60;67.90
20568;DHT22;10442;49.932;11.592;2024-01-30T06:32:40;3.60;67.90
20568;DHT22;10442;49.932;11.592;2024-01-30T06:35:07;3.70;68.00
20568;DHT22;10442;49.932;11.592;2024-01-30T06:37:36;3.70;68.10
20568;DHT22;10442;49.932;11.592;2024-01-30T06:40:04;3.70;68.20
20568;DHT22;10442;49.932;11.592;2024-01-30T06:42:32;3.70;68.30
20568;DHT22;10442;49.932;11.592;2024-01-30T06:44:59;3.70;68.20
20568;DHT22;10442;49.932;11.592;2024-01-30T06:47:27;3.70;68.20
20568;DHT22;10442;49.932;11.592;2024-01-30T06:49:56;3.70;68.20
20568;DHT22;10442;49.932;11.592;2024-01-30T06:52:24;3.70;68.20
20568;DHT22;10442;49.932;11.592;2024-01-30T06:54:52;3.70;68.20
20568;DHT22;10442;49.932;11.592;2024-01-30T06:57:21;3.70;68.20
20568;DHT22;10442;49.932;11.592;2024-01-30T06:59:48;3.70;68.10
20568;DHT22;10442;49.932;11.592;2024-01-30T07:02:16;3.70;68.10
20568;DHT22;10442;49.932;11.592;2024-01-30T07:04:45;3.70;68.10
20568;DHT22;10442;49.932;11.592;2024-01-30T07:07:14;3.80;68.20
20568;DHT22;10442;49.932;11.592;2024-01-30T07:09:42;3.80;68.20
20568;DHT22;10442;49.932;11.592;2024-01-30T07:12:11;3.80;69.10
20568;DHT22;10442;49.932;11.592;2024-01-30T07:14:39;3.80;68.50
20568;DHT22;10442;49.932;11.592;2024-01-30T07:17:07;3.90;68.60
20568;DHT22;10442;49.932;11.592;2024-01-30T07:19:36;3.90;68.60
20568;DHT22;10442;49.932;11.592;2024-01-30T07:22:03;4.00;68.80
20568;DHT22;10442;49.932;11.592;2024-01-30T07:24:31;4.00;68.70
20568;DHT22;10442;49.932;11.592;2024-01-30T07:26:59;4.10;68.70
20568;DHT22;10442;49.932;11.592;2024-01-30T07:29:28;4.20;68.70
20568;DHT22;10442;49.932;11.592;2024-01-30T07:31:55;4.20;68.70
20568;DHT22;10442;49.932;11.592;2024-01-30T07:34:24;4.30;68.90
20568;DHT22;10442;49.932;11.592;2024-01-30T07:36:52;4.40;68.90
20568;DHT22;10442;49.932;11.592;2024-01-30T07:39:22;4.60;68.90
20568;DHT22;10442;49.932;11.592;2024-01-30T07:41:51;4.70;68.70
20568;DHT22;10442;49.932;11.592;2024-01-30T07:44:20;4.90;68.60
20568;DHT22;10442;49.932;11.592;2024-01-30T07:46:48;5.00;68.50
20568;DHT22;10442;49.932;11.592;2024-01-30T07:49:16;5.10;68.20
20568;DHT22;10442;49.932;11.592;2024-01-30T07:51:44;5.30;68.00
20568;DHT22;10442;49.932;11.592;2024-01-30T07:54:12;5.40;67.80
20568;DHT22;10442;49.932;11.592;2024-01-30T07:56:40;5.50;67.70
20568;DHT22;10442;49.932;11.592;2024-01-30T07:59:10;5.60;67.70
20568;DHT22;10442;49.932;11.592;2024-01-30T08:01:38;5.80;67.40
20568;DHT22;10442;49.932;11.592;2024-01-30T08:04:06;5.90;67.00
20568;DHT22;10442;49.932;11.592;2024-01-30T08:06:35;6.00;66.90
20568;DHT22;10442;49.932;11.592;2024-01-30T08:09:03;6.10;66.60
20568;DHT22;10442;49.932;11.592;2024-01-30T08:11:32;6.30;66.60
20568;DHT22;10442;49.932;11.592;2024-01-30T08:14:01;6.50;66.40
20568;DHT22;10442;49.932;11.592;2024-01-30T08:16:29;6.70;65.90
20568;DHT22;10442;49.932;11.592;2024-01-30T08:18:58;6.90;65.60
20568;DHT22;10442;49.932;11.592;2024-01-30T08:21:28;7.10;65.40
20568;DHT22;10442;49.932;11.592;2024-01-30T08:23:55;7.30;65.20
20568;DHT22;10442;49.932;11.592;2024-01-30T08:26:23;7.60;64.70
20568;DHT22;10442;49.932;11.592;2024-01-30T08:28:51;7.90;64.20
20568;DHT22;10442;49.932;11.592;2024-01-30T08:31:21;8.20;63.10
20568;DHT22;10442;49.932;11.592;2024-01-30T08:33:49;8.50;62.60
20568;DHT22;10442;49.932;11.592;2024-01-30T08:36:17;8.70;61.80
20568;DHT22;10442;49.932;11.592;2024-01-30T08:38:45;8.80;61.20
20568;DHT22;10442;49.932;11.592;2024-01-30T08:41:12;8.90;60.60
20568;DHT22;10442;49.932;11.592;2024-01-30T08:43:40;8.90;60.10
20568;DHT22;10442;49.932;11.592;2024-01-30T08:46:08;8.80;59.90
20568;DHT22;10442;49.932;11.592;2024-01-30T08:48:37;8.80;59.80
20568;DHT22;10442;49.932;11.592;2024-01-30T08:51:06;8.80;60.00
20568;DHT22;10442;49.932;11.592;2024-01-30T08:53:36;8.70;59.90
20568;DHT22;10442;49.932;11.592;2024-01-30T08:56:06;8.70;59.80
20568;DHT22;10442;49.932;11.592;2024-01-30T08:58:34;8.60;59.80
20568;DHT22;10442;49.932;11.592;2024-01-30T09:01:03;8.60;59.80
20568;DHT22;10442;49.932;11.592;2024-01-30T09:03:33;8.50;59.80
20568;DHT22;10442;49.932;11.592;2024-01-30T09:06:01;8.50;59.90
20568;DHT22;10442;49.932;11.592;2024-01-30T09:08:30;8.40;60.20
20568;DHT22;10442;49.932;11.592;2024-01-30T09:10:57;8.40;60.20
20568;DHT22;10442;49.932;11.592;2024-01-30T09:13:26;8.30;60.30
20568;DHT22;10442;49.932;11.592;2024-01-30T09:15:55;8.30;60.30
20568;DHT22;10442;49.932;11.592;2024-01-30T09:18:24;8.20;60.50
20568;DHT22;10442;49.932;11.592;2024-01-30T09:20:52;8.20;60.60
20568;DHT22;10442;49.932;11.592;2024-01-30T09:23:20;8.20;60.60
20568;DHT22;10442;49.932;11.592;2024-01-30T09:25:49;8.20;60.70
20568;DHT22;10442;49.932;11.592;2024-01-30T09:28:17;8.10;60.70
20568;DHT22;10442;49.932;11.592;2024-01-30T09:30:46;8.10;60.60
20568;DHT22;10442;49.932;11.592;2024-01-30T09:33:14;8.10;60.60
20568;DHT22;10442;49.932;11.592;2024-01-30T09:35:42;8.10;60.90
20568;DHT22;10442;49.932;11.592;2024-01-30T09:38:10;8.00;61.00
20568;DHT22;10442;49.932;11.592;2024-01-30T09:40:39;8.00;61.00
20568;DHT22;10442;49.932;11.592;2024-01-30T09:43:06;8.00;61.20
20568;DHT22;10442;49.932;11.592;2024-01-30T09:45:35;8.00;61.00
20568;DHT22;10442;49.932;11.592;2024-01-30T09:48:03;8.00;60.80
20568;DHT22;10442;49.932;11.592;2024-01-30T09:50:32;8.00;60.90
20568;DHT22;10442;49.932;11.592;2024-01-30T09:53:01;8.00;60.90
20568;DHT22;10442;49.932;11.592;2024-01-30T09:55:30;8.00;61.20
20568;DHT22;10442;49.932;11.592;2024-01-30T09:57:58;8.00;61.20
20568;DHT22;10442;49.932;11.592;2024-01-30T10:00:27;8.00;61.20
20568;DHT22;10442;49.932;11.592;2024-01-30T10:02:55;8.00;61.10
20568;DHT22;10442;49.932;11.592;2024-01-30T10:05:27;8.00;61.10
20568;DHT22;10442;49.932;11.592;2024-01-30T10:07:59;8.00;60.90
20568;DHT22;10442;49.932;11.592;2024-01-30T10:10:27;8.00;61.50
20568;DHT22;10442;49.932;11.592;2024-01-30T10:12:57;8.10;61.40
20568;DHT22;10442;49.932;11.592;2024-01-30T10:15:25;8.10;61.30
20568;DHT22;10442;49.932;11.592;2024-01-30T10:17:55;8.10;61.20
20568;DHT22;10442;49.932;11.592;2024-01-30T10:20:24;8.10;61.10
20568;DHT22;10442;49.932;11.592;2024-01-30T10:22:53;8.10;60.80
20568;DHT22;10442;49.932;11.592;2024-01-30T10:25:21;8.20;61.00
20568;DHT22;10442;49.932;11.592;2024-01-30T10:27:54;8.20;60.90
20568;DHT22;10442;49.932;11.592;2024-01-30T10:30:27;8.20;60.90
20568;DHT22;10442;49.932;11.592;2024-01-30T10:32:55;8.20;61.00
20568;DHT22;10442;49.932;11.592;2024-01-30T10:35:24;8.20;60.80
20568;DHT22;10442;49.932;11.592;2024-01-30T10:37:52;8.30;60.90
20568;DHT22;10442;49.932;11.592;2024-01-30T10:40:28;8.30;60.70
20568;DHT22;10442;49.932;11.592;2024-01-30T10:43:01;8.30;60.70
20568;DHT22;10442;49.932;11.592;2024-01-30T10:45:31;8.40;60.80
20568;DHT22;10442;49.932;11.592;2024-01-30T10:48:01;8.40;60.90
20568;DHT22;10442;49.932;11.592;2024-01-30T10:50:32;8.40;61.00
20568;DHT22;10442;49.932;11.592;2024-01-30T10:53:10;8.40;61.00
20568;DHT22;10442;49.932;11.592;2024-01-30T10:55:39;8.40;60.90
20568;DHT22;10442;49.932;11.592;2024-01-30T10:58:07;8.50;61.00
20568;DHT22;10442;49.932;11.592;2024-01-30T11:00:35;8.50;60.90
20568;DHT22;10442;49.932;11.592;2024-01-30T11:03:07;8.50;61.00
20568;DHT22;10442;49.932;11.592;2024-01-30T11:05:40;8.60;60.80
20568;DHT22;10442;49.932;11.592;2024-01-30T11:08:13;8.60;60.80
20568;DHT22;10442;49.932;11.592;2024-01-30T11:10:47;8.60;60.70
20568;DHT22;10442;49.932;11.592;2024-01-30T11:13:15;8.70;60.60
20568;DHT22;10442;49.932;11.592;2024-01-30T11:15:42;8.70;60.60
20568;DHT22;10442;49.932;11.592;2024-01-30T11:18:11;8.70;60.50
20568;DHT22;10442;49.932;11.592;2024-01-30T11:20:38;8.70;60.60
20568;DHT22;10442;49.932;11.592;2024-01-30T11:23:14;8.70;60.50
20568;DHT22;10442;49.932;11.592;2024-01-30T11:25:44;8.70;60.60
20568;DHT22;10442;49.932;11.592;2024-01-30T11:28:14;8.70;60.40
20568;DHT22;10442;49.932;11.592;2024-01-30T11:30:46;8.70;60.30
20568;DHT22;10442;49.932;11.592;2024-01-30T11:33:26;8.80;60.50
20568;DHT22;10442;49.932;11.592;2024-01-30T11:35:59;8.80;60.80
20568;DHT22;10442;49.932;11.592;2024-01-30T11:38:28;8.80;60.50
20568;DHT22;10442;49.932;11.592;2024-01-30T11:40:56;8.80;60.70
20568;DHT22;10442;49.932;11.592;2024-01-30T11:43:26;8.80;60.70
20568;DHT22;10442;49.932;11.592;2024-01-30T11:45:54;8.90;60.70
20568;DHT22;10442;49.932;11.592;2024-01-30T11:48:23;8.90;60.80
20568;DHT22;10442;49.932;11.592;2024-01-30T11:50:52;8.90;61.40
20568;DHT22;10442;49.932;11.592;2024-01-30T11:53:22;9.00;61.10
20568;DHT22;10442;49.932;11.592;2024-01-30T11:55:51;9.00;60.80
20568;DHT22;10442;49.932;11.592;2024-01-30T11:58:18;9.00;60.70
20568;DHT22;10442;49.932;11.592;2024-01-30T12:00:55;9.10;60.70
20568;DHT22;10442;49.932;11.592;2024-01-30T12:03:24;9.10;60.90
20568;DHT22;10442;49.932;11.592;2024-01-30T12:05:57;9.10;60.70
20568;DHT22;10442;49.932;11.592;2024-01-30T12:08:29;9.10;60.60
20568;DHT22;10442;49.932;11.592;2024-01-30T12:10:57;9.10;60.60
20568;DHT22;10442;49.932;11.592;2024-01-30T12:13:34;9.10;60.50
20568;DHT22;10442;49.932;11.592;2024-01-30T12:16:03;9.10;60.80
20568;DHT22;10442;49.932;11.592;2024-01-30T12:18:32;9.20;61.00
20568;DHT22;10442;49.932;11.592;2024-01-30T12:21:02;9.20;61.00
20568;DHT22;10442;49.932;11.592;2024-01-30T12:23:30;9.20;61.00
20568;DHT22;10442;49.932;11.592;2024-01-30T12:25:58;9.20;60.90
20568;DHT22;10442;49.932;11.592;2024-01-30T12:28:26;9.20;60.90
20568;DHT22;10442;49.932;11.592;2024-01-30T12:31:02;9.20;60.70
20568;DHT22;10442;49.932;11.592;2024-01-30T12:33:31;9.20;60.90
20568;DHT22;10442;49.932;11.592;2024-01-30T12:36:02;9.30;61.10
20568;DHT22;10442;49.932;11.592;2024-01-30T12:38:31;9.30;61.10
20568;DHT22;10442;49.932;11.592;2024-01-30T12:40:59;9.30;61.20
20568;DHT22;10442;49.932;11.592;2024-01-30T12:43:26;9.30;61.00
20568;DHT22;10442;49.932;11.592;2024-01-30T12:46:06;9.30;61.10
20568;DHT22;10442;49.932;11.592;2024-01-30T12:48:35;9.40;61.10
20568;DHT22;10442;49.932;11.592;2024-01-30T12:51:04;9.40;61.20
20568;DHT22;10442;49.932;11.592;2024-01-30T12:53:33;9.50;61.40
20568;DHT22;10442;49.932;11.592;2024-01-30T12:56:00;9.50;61.50
20568;DHT22;10442;49.932;11.592;2024-01-30T12:58:28;9.50;61.50
20568;DHT22;10442;49.932;11.592;2024-01-30T13:00:57;9.50;61.20
20568;DHT22;10442;49.932;11.592;2024-01-30T13:03:25;9.60;61.50
20568;DHT22;10442;49.932;11.592;2024-01-30T13:05:55;9.60;61.60
20568;DHT22;10442;49.932;11.592;2024-01-30T13:08:23;9.70;61.50
20568;DHT22;10442;49.932;11.592;2024-01-30T13:10:59;9.80;61.30
20568;DHT22;10442;49.932;11.592;2024-01-30T13:13:28;9.80;61.10
20568;DHT22;10442;49.932;11.592;2024-01-30T13:16:07;9.90;61.10
20568;DHT22;10442;49.932;11.592;2024-01-30T13:18:38;10.00;60.80
20568;DHT22;10442;49.932;11.592;2024-01-30T13:21:06;10.00;61.00
20568;DHT22;10442;49.932;11.592;2024-01-30T13:23:35;10.10;61.20
20568;DHT22;10442;49.932;11.592;2024-01-30T13:26:03;10.10;60.90
20568;DHT22;10442;49.932;11.592;2024-01-30T13:28:31;10.10;60.50
20568;DHT22;10442;49.932;11.592;2024-01-30T13:30:59;10.10;60.50
20568;DHT22;10442;49.932;11.592;2024-01-30T13:33:27;10.10;60.60
20568;DHT22;10442;49.932;11.592;2024-01-30T13:35:55;10.10;60.80
20568;DHT22;10442;49.932;11.592;2024-01-30T13:38:23;10.10;60.70
20568;DHT22;10442;49.932;11.592;2024-01-30T13:40:51;10.10;60.50
20568;DHT22;10442;49.932;11.592;2024-01-30T13:43:20;10.20;60.40
20568;DHT22;10442;49.932;11.592;2024-01-30T13:45:48;10.10;60.40
20568;DHT22;10442;49.932;11.592;2024-01-30T13:48:15;10.20;60.60
20568;DHT22;10442;49.932;11.592;2024-01-30T13:50:44;10.20;60.60
20568;DHT22;10442;49.932;11.592;2024-01-30T13:53:13;10.10;60.60
20568;DHT22;10442;49.932;11.592;2024-01-30T13:55:43;10.20;60.50
20568;DHT22;10442;49.932;11.592;2024-01-30T13:58:12;10.20;60.70
20568;DHT22;10442;49.932;11.592;2024-01-30T14:00:39;10.20;60.90
20568;DHT22;10442;49.932;11.592;2024-01-30T14:03:07;10.10;60.90
20568;DHT22;10442;49.932;11.592;2024-01-30T14:05:35;10.10;61.00
20568;DHT22;10442;49.932;11.592;2024-01-30T14:08:05;10.10;61.10
20568;DHT22;10442;49.932;11.592;2024-01-30T14:10:33;10.10;61.20
20568;DHT22;10442;49.932;11.592;2024-01-30T14:13:02;10.00;61.10
20568;DHT22;10442;49.932;11.592;2024-01-30T14:15:30;10.00;61.00
20568;DHT22;10442;49.932;11.592;2024-01-30T14:17:58;10.00;61.20
20568;DHT22;10442;49.932;11.592;2024-01-30T14:20:26;10.00;61.20
20568;DHT22;10442;49.932;11.592;2024-01-30T14:22:54;10.00;61.10
20568;DHT22;10442;49.932;11.592;2024-01-30T14:25:23;9.90;61.00
20568;DHT22;10442;49.932;11.592;2024-01-30T14:27:51;9.90;61.20
20568;DHT22;10442;49.932;11.592;2024-01-30T14:30:19;9.80;61.10
20568;DHT22;10442;49.932;11.592;2024-01-30T14:32:48;9.80;61.10
20568;DHT22;10442;49.932;11.592;2024-01-30T14:35:16;9.80;61.30
20568;DHT22;10442;49.932;11.592;2024-01-30T14:37:44;9.80;61.30
20568;DHT22;10442;49.932;11.592;2024-01-30T14:40:14;9.80;61.40
20568;DHT22;10442;49.932;11.592;2024-01-30T14:42:43;9.80;61.50
20568;DHT22;10442;49.932;11.592;2024-01-30T14:45:10;9.80;61.50
20568;DHT22;10442;49.932;11.592;2024-01-30T14:47:39;9.70;61.40
20568;DHT22;10442;49.932;11.592;2024-01-30T14:50:11;9.70;61.60
20568;DHT22;10442;49.932;11.592;2024-01-30T14:52:38;9.70;61.60
20568;DHT22;10442;49.932;11.592;2024-01-30T14:55:08;9.70;61.60
20568;DHT22;10442;49.932;11.592;2024-01-30T14:57:38;9.60;61.60
20568;DHT22;10442;49.932;11.592;2024-01-30T15:00:10;9.60;61.70
20568;DHT22;10442;49.932;11.592;2024-01-30T15:02:37;9.60;62.60
20568;DHT22;10442;49.932;11.592;2024-01-30T15:05:06;9.50;61.80
20568;DHT22;10442;49.932;11.592;2024-01-30T15:07:34;9.50;61.80
20568;DHT22;10442;49.932;11.592;2024-01-30T15:10:10;9.50;62.00
20568;DHT22;10442;49.932;11.592;2024-01-30T15:12:38;9.40;62.10
20568;DHT22;10442;49.932;11.592;2024-01-30T15:15:07;9.40;62.20
20568;DHT22;10442;49.932;11.592;2024-01-30T15:17:36;9.40;62.20
20568;DHT22;10442;49.932;11.592;2024-01-30T15:20:04;9.40;62.40
20568;DHT22;10442;49.932;11.592;2024-01-30T15:22:32;9.30;62.50
20568;DHT22;10442;49.932;11.592;2024-01-30T15:25:00;9.30;62.30
20568;DHT22;10442;49.932;11.592;2024-01-30T15:27:28;9.30;62.10
20568;DHT22;10442;49.932;11.592;2024-01-30T15:29:58;9.30;62.20
20568;DHT22;10442;49.932;11.592;2024-01-30T15:32:27;9.20;62.30
20568;DHT22;10442;49.932;11.592;2024-01-30T15:34:54;9.20;62.30
20568;DHT22;10442;49.932;11.592;2024-01-30T15:37:24;9.20;62.40